sensor_id;sensor_type;location;lat;lon;timestamp;P1;durP1;ratioP1;P2;durP2;ratioP2
27225;SDS011;14732;51.074;3.788;2023-05-10T00:00:53;21.73;;;10.40;;
27225;SDS011;14732;51.074;3.788;2023-05-10T00:03:18;29.42;;;10.90;;
27225;SDS011;14732;51.074;3.788;2023-05-10T00:05:44;22.65;;;9.88;;
27225;SDS011;14732;51.074;3.788;2023-05-10T00:08:09;24.02;;;10.15;;
27225;SDS011;14732;51.074;3.788;2023-05-10T00:10:35;20.83;;;10.48;;
27225;SDS011;14732;51.074;3.788;2023-05-10T00:13:02;24.25;;;10.13;;
27225;SDS011;14732;51.074;3.788;2023-05-10T00:15:28;28.65;;;10.57;;
27225;SDS011;14732;51.074;3.788;2023-05-10T00:17:55;22.08;;;10.85;;
27225;SDS011;14732;51.074;3.788;2023-05-10T00:20:21;23.75;;;10.57;;
27225;SDS011;14732;51.074;3.788;2023-05-10T00:22:47;25.45;;;10.68;;
27225;SDS011;14732;51.074;3.788;2023-05-10T00:25:13;22.08;;;11.35;;
27225;SDS011;14732;51.074;3.788;2023-05-10T00:27:39;26.02;;;11.68;;
27225;SDS011;14732;51.074;3.788;2023-05-10T00:30:04;23.85;;;10.88;;
27225;SDS011;14732;51.074;3.788;2023-05-10T00:32:31;24.70;;;12.40;;
27225;SDS011;14732;51.074;3.788;2023-05-10T00:34:57;26.55;;;12.45;;
27225;SDS011;14732;51.074;3.788;2023-05-10T00:37:22;25.75;;;13.00;;
27225;SDS011;14732;51.074;3.788;2023-05-10T00:39:48;24.55;;;12.75;;
27225;SDS011;14732;51.074;3.788;2023-05-10T00:42:14;32.08;;;14.32;;
27225;SDS011;14732;51.074;3.788;2023-05-10T00:44:40;25.98;;;14.00;;
27225;SDS011;14732;51.074;3.788;2023-05-10T00:47:05;30.08;;;15.00;;
27225;SDS011;14732;51.074;3.788;2023-05-10T00:49:32;27.02;;;14.32;;
27225;SDS011;14732;51.074;3.788;2023-05-10T00:51:58;28.55;;;14.27;;
27225;SDS011;14732;51.074;3.788;2023-05-10T00:54:23;35.08;;;16.10;;
27225;SDS011;14732;51.074;3.788;2023-05-10T00:56:49;32.97;;;15.75;;
27225;SDS011;14732;51.074;3.788;2023-05-10T00:59:16;33.80;;;16.35;;
27225;SDS011;14732;51.074;3.788;2023-05-10T01:01:43;34.38;;;15.95;;
27225;SDS011;14732;51.074;3.788;2023-05-10T01:04:10;36.70;;;16.23;;
27225;SDS011;14732;51.074;3.788;2023-05-10T01:06:38;38.15;;;17.52;;
27225;SDS011;14732;51.074;3.788;2023-05-10T01:09:05;35.15;;;17.55;;
27225;SDS011;14732;51.074;3.788;2023-05-10T01:11:32;37.90;;;16.30;;
27225;SDS011;14732;51.074;3.788;2023-05-10T01:14:01;37.45;;;16.48;;
27225;SDS011;14732;51.074;3.788;2023-05-10T01:16:28;34.92;;;16.27;;
27225;SDS011;14732;51.074;3.788;2023-05-10T01:18:57;30.25;;;14.98;;
27225;SDS011;14732;51.074;3.788;2023-05-10T01:21:27;35.47;;;17.10;;
27225;SDS011;14732;51.074;3.788;2023-05-10T01:35:30;36.72;;;17.02;;
27225;SDS011;14732;51.074;3.788;2023-05-10T01:38:12;37.22;;;16.95;;
27225;SDS011;14732;51.074;3.788;2023-05-10T01:40:42;31.63;;;16.60;;
27225;SDS011;14732;51.074;3.788;2023-05-10T01:43:19;38.83;;;16.13;;
27225;SDS011;14732;51.074;3.788;2023-05-10T01:46:02;33.70;;;15.27;;
27225;SDS011;14732;51.074;3.788;2023-05-10T01:48:36;28.60;;;14.95;;
27225;SDS011;14732;51.074;3.788;2023-05-10T01:51:12;28.63;;;14.50;;
27225;SDS011;14732;51.074;3.788;2023-05-10T01:53:42;30.85;;;15.70;;
27225;SDS011;14732;51.074;3.788;2023-05-10T01:56:08;28.70;;;15.43;;
27225;SDS011;14732;51.074;3.788;2023-05-10T01:58:35;31.20;;;16.58;;
27225;SDS011;14732;51.074;3.788;2023-05-10T02:01:04;29.35;;;16.25;;
27225;SDS011;14732;51.074;3.788;2023-05-10T02:03:32;29.38;;;15.68;;
27225;SDS011;14732;51.074;3.788;2023-05-10T02:06:01;27.27;;;14.88;;
27225;SDS011;14732;51.074;3.788;2023-05-10T02:08:28;30.92;;;16.70;;
27225;SDS011;14732;51.074;3.788;2023-05-10T02:10:55;31.73;;;15.70;;
27225;SDS011;14732;51.074;3.788;2023-05-10T02:13:23;30.13;;;14.98;;
27225;SDS011;14732;51.074;3.788;2023-05-10T02:15:49;31.90;;;14.95;;
27225;SDS011;14732;51.074;3.788;2023-05-10T02:18:16;29.23;;;15.75;;
27225;SDS011;14732;51.074;3.788;2023-05-10T02:20:43;28.88;;;15.63;;
27225;SDS011;14732;51.074;3.788;2023-05-10T02:23:11;31.23;;;15.27;;
27225;SDS011;14732;51.074;3.788;2023-05-10T02:25:38;30.63;;;14.85;;
27225;SDS011;14732;51.074;3.788;2023-05-10T02:28:04;31.23;;;15.68;;
27225;SDS011;14732;51.074;3.788;2023-05-10T02:30:32;34.95;;;17.05;;
27225;SDS011;14732;51.074;3.788;2023-05-10T02:32:59;30.92;;;15.63;;
27225;SDS011;14732;51.074;3.788;2023-05-10T02:35:27;29.40;;;15.23;;
27225;SDS011;14732;51.074;3.788;2023-05-10T02:37:53;29.50;;;13.95;;
27225;SDS011;14732;51.074;3.788;2023-05-10T02:40:19;27.70;;;13.63;;
27225;SDS011;14732;51.074;3.788;2023-05-10T02:42:47;31.85;;;14.57;;
27225;SDS011;14732;51.074;3.788;2023-05-10T02:45:19;28.30;;;14.38;;
27225;SDS011;14732;51.074;3.788;2023-05-10T02:47:47;26.75;;;13.63;;
27225;SDS011;14732;51.074;3.788;2023-05-10T02:50:13;31.75;;;14.93;;
27225;SDS011;14732;51.074;3.788;2023-05-10T02:52:40;24.45;;;13.82;;
27225;SDS011;14732;51.074;3.788;2023-05-10T02:55:11;31.42;;;14.80;;
27225;SDS011;14732;51.074;3.788;2023-05-10T02:57:48;30.80;;;15.65;;
27225;SDS011;14732;51.074;3.788;2023-05-10T03:00:16;27.45;;;13.85;;
27225;SDS011;14732;51.074;3.788;2023-05-10T03:02:42;31.60;;;13.77;;
27225;SDS011;14732;51.074;3.788;2023-05-10T03:05:08;25.67;;;13.90;;
27225;SDS011;14732;51.074;3.788;2023-05-10T03:07:33;23.67;;;12.73;;
27225;SDS011;14732;51.074;3.788;2023-05-10T03:10:00;23.63;;;13.13;;
27225;SDS011;14732;51.074;3.788;2023-05-10T03:12:47;25.17;;;13.52;;
27225;SDS011;14732;51.074;3.788;2023-05-10T03:18:18;23.55;;;13.18;;
27225;SDS011;14732;51.074;3.788;2023-05-10T03:20:48;26.65;;;13.63;;
27225;SDS011;14732;51.074;3.788;2023-05-10T03:25:44;21.98;;;11.85;;
27225;SDS011;14732;51.074;3.788;2023-05-10T03:28:13;20.60;;;12.00;;
27225;SDS011;14732;51.074;3.788;2023-05-10T03:30:40;24.83;;;13.55;;
27225;SDS011;14732;51.074;3.788;2023-05-10T03:33:07;22.98;;;12.50;;
27225;SDS011;14732;51.074;3.788;2023-05-10T03:35:33;24.52;;;12.27;;
27225;SDS011;14732;51.074;3.788;2023-05-10T03:37:59;22.33;;;12.60;;
27225;SDS011;14732;51.074;3.788;2023-05-10T03:40:26;24.33;;;12.85;;
27225;SDS011;14732;51.074;3.788;2023-05-10T03:42:54;23.88;;;13.55;;
27225;SDS011;14732;51.074;3.788;2023-05-10T03:45:20;26.60;;;13.90;;
27225;SDS011;14732;51.074;3.788;2023-05-10T03:47:46;25.13;;;14.15;;
27225;SDS011;14732;51.074;3.788;2023-05-10T03:50:11;26.15;;;14.10;;
27225;SDS011;14732;51.074;3.788;2023-05-10T03:52:37;25.88;;;14.10;;
27225;SDS011;14732;51.074;3.788;2023-05-10T03:55:04;26.75;;;13.90;;
27225;SDS011;14732;51.074;3.788;2023-05-10T03:57:31;29.17;;;14.07;;
27225;SDS011;14732;51.074;3.788;2023-05-10T03:59:57;28.60;;;14.73;;
27225;SDS011;14732;51.074;3.788;2023-05-10T04:02:23;29.25;;;14.43;;
27225;SDS011;14732;51.074;3.788;2023-05-10T04:04:48;29.00;;;15.07;;
27225;SDS011;14732;51.074;3.788;2023-05-10T04:07:14;32.20;;;14.75;;
27225;SDS011;14732;51.074;3.788;2023-05-10T04:09:40;31.30;;;15.88;;
27225;SDS011;14732;51.074;3.788;2023-05-10T04:12:06;27.27;;;14.95;;
27225;SDS011;14732;51.074;3.788;2023-05-10T04:14:31;29.05;;;15.27;;
27225;SDS011;14732;51.074;3.788;2023-05-10T04:16:57;31.90;;;15.18;;
27225;SDS011;14732;51.074;3.788;2023-05-10T04:19:23;28.75;;;15.00;;
27225;SDS011;14732;51.074;3.788;2023-05-10T04:21:48;30.45;;;15.07;;
27225;SDS011;14732;51.074;3.788;2023-05-10T04:24:14;32.35;;;16.98;;
27225;SDS011;14732;51.074;3.788;2023-05-10T04:26:40;29.30;;;15.20;;
27225;SDS011;14732;51.074;3.788;2023-05-10T04:29:05;30.15;;;15.90;;
27225;SDS011;14732;51.074;3.788;2023-05-10T04:31:31;33.22;;;16.98;;
27225;SDS011;14732;51.074;3.788;2023-05-10T04:33:57;33.17;;;16.10;;
27225;SDS011;14732;51.074;3.788;2023-05-10T04:36:23;29.30;;;16.10;;
27225;SDS011;14732;51.074;3.788;2023-05-10T04:38:48;31.45;;;16.92;;
27225;SDS011;14732;51.074;3.788;2023-05-10T04:41:14;28.77;;;16.98;;
27225;SDS011;14732;51.074;3.788;2023-05-10T04:43:40;32.08;;;16.55;;
27225;SDS011;14732;51.074;3.788;2023-05-10T04:46:05;33.70;;;17.85;;
27225;SDS011;14732;51.074;3.788;2023-05-10T04:48:34;32.60;;;17.20;;
27225;SDS011;14732;51.074;3.788;2023-05-10T04:51:00;32.30;;;17.15;;
27225;SDS011;14732;51.074;3.788;2023-05-10T04:53:26;32.83;;;16.95;;
27225;SDS011;14732;51.074;3.788;2023-05-10T04:55:52;32.90;;;16.75;;
27225;SDS011;14732;51.074;3.788;2023-05-10T04:58:17;30.05;;;15.82;;
27225;SDS011;14732;51.074;3.788;2023-05-10T05:00:43;35.30;;;16.60;;
27225;SDS011;14732;51.074;3.788;2023-05-10T05:03:09;37.40;;;17.95;;
27225;SDS011;14732;51.074;3.788;2023-05-10T05:05:35;30.90;;;16.83;;
27225;SDS011;14732;51.074;3.788;2023-05-10T05:08:00;33.88;;;17.58;;
27225;SDS011;14732;51.074;3.788;2023-05-10T05:10:26;37.85;;;18.02;;
27225;SDS011;14732;51.074;3.788;2023-05-10T05:12:51;35.60;;;18.13;;
27225;SDS011;14732;51.074;3.788;2023-05-10T05:15:17;37.95;;;17.88;;
27225;SDS011;14732;51.074;3.788;2023-05-10T05:17:43;35.03;;;18.15;;
27225;SDS011;14732;51.074;3.788;2023-05-10T05:20:09;33.70;;;18.00;;
27225;SDS011;14732;51.074;3.788;2023-05-10T05:22:38;34.53;;;18.38;;
27225;SDS011;14732;51.074;3.788;2023-05-10T05:25:04;36.37;;;17.97;;
27225;SDS011;14732;51.074;3.788;2023-05-10T05:27:30;32.65;;;17.58;;
27225;SDS011;14732;51.074;3.788;2023-05-10T05:29:57;40.03;;;18.65;;
27225;SDS011;14732;51.074;3.788;2023-05-10T05:32:23;36.67;;;16.55;;
27225;SDS011;14732;51.074;3.788;2023-05-10T05:34:49;36.63;;;18.80;;
27225;SDS011;14732;51.074;3.788;2023-05-10T05:37:19;37.20;;;19.40;;
27225;SDS011;14732;51.074;3.788;2023-05-10T05:39:46;37.95;;;18.67;;
27225;SDS011;14732;51.074;3.788;2023-05-10T05:42:12;38.83;;;19.83;;
27225;SDS011;14732;51.074;3.788;2023-05-10T05:44:38;40.75;;;19.17;;
27225;SDS011;14732;51.074;3.788;2023-05-10T05:47:04;37.72;;;19.42;;
27225;SDS011;14732;51.074;3.788;2023-05-10T05:49:30;37.83;;;19.25;;
27225;SDS011;14732;51.074;3.788;2023-05-10T05:51:59;38.10;;;19.17;;
27225;SDS011;14732;51.074;3.788;2023-05-10T05:54:29;37.45;;;20.02;;
27225;SDS011;14732;51.074;3.788;2023-05-10T05:56:58;36.92;;;19.60;;
27225;SDS011;14732;51.074;3.788;2023-05-10T06:01:50;36.40;;;18.67;;
27225;SDS011;14732;51.074;3.788;2023-05-10T06:04:16;29.45;;;17.33;;
27225;SDS011;14732;51.074;3.788;2023-05-10T06:06:42;41.22;;;18.83;;
27225;SDS011;14732;51.074;3.788;2023-05-10T06:09:08;33.88;;;17.80;;
27225;SDS011;14732;51.074;3.788;2023-05-10T06:11:34;34.15;;;18.88;;
27225;SDS011;14732;51.074;3.788;2023-05-10T06:14:00;36.63;;;19.23;;
27225;SDS011;14732;51.074;3.788;2023-05-10T06:16:26;33.28;;;18.05;;
27225;SDS011;14732;51.074;3.788;2023-05-10T06:18:52;30.67;;;16.00;;
27225;SDS011;14732;51.074;3.788;2023-05-10T06:21:18;31.83;;;17.13;;
27225;SDS011;14732;51.074;3.788;2023-05-10T06:23:44;31.27;;;17.10;;
27225;SDS011;14732;51.074;3.788;2023-05-10T06:26:10;30.48;;;16.73;;
27225;SDS011;14732;51.074;3.788;2023-05-10T06:28:35;29.08;;;14.98;;
27225;SDS011;14732;51.074;3.788;2023-05-10T06:31:03;26.73;;;15.10;;
27225;SDS011;14732;51.074;3.788;2023-05-10T06:33:30;25.70;;;14.63;;
27225;SDS011;14732;51.074;3.788;2023-05-10T06:35:56;24.23;;;14.23;;
27225;SDS011;14732;51.074;3.788;2023-05-10T06:38:22;27.73;;;14.82;;
27225;SDS011;14732;51.074;3.788;2023-05-10T06:40:48;24.55;;;14.40;;
27225;SDS011;14732;51.074;3.788;2023-05-10T06:43:13;28.00;;;15.25;;
27225;SDS011;14732;51.074;3.788;2023-05-10T06:45:39;29.15;;;14.75;;
27225;SDS011;14732;51.074;3.788;2023-05-10T06:48:05;24.58;;;12.95;;
27225;SDS011;14732;51.074;3.788;2023-05-10T06:50:31;27.77;;;15.90;;
27225;SDS011;14732;51.074;3.788;2023-05-10T06:52:58;23.45;;;14.20;;
27225;SDS011;14732;51.074;3.788;2023-05-10T06:55:24;25.92;;;14.82;;
27225;SDS011;14732;51.074;3.788;2023-05-10T06:57:49;23.30;;;13.68;;
27225;SDS011;14732;51.074;3.788;2023-05-10T07:00:16;25.95;;;12.98;;
27225;SDS011;14732;51.074;3.788;2023-05-10T07:02:42;23.20;;;12.88;;
27225;SDS011;14732;51.074;3.788;2023-05-10T07:05:08;19.42;;;11.40;;
27225;SDS011;14732;51.074;3.788;2023-05-10T07:07:34;19.52;;;11.13;;
27225;SDS011;14732;51.074;3.788;2023-05-10T07:10:00;18.95;;;11.57;;
27225;SDS011;14732;51.074;3.788;2023-05-10T07:12:26;19.08;;;10.15;;
27225;SDS011;14732;51.074;3.788;2023-05-10T07:14:51;16.80;;;9.43;;
27225;SDS011;14732;51.074;3.788;2023-05-10T07:17:17;15.95;;;10.40;;
27225;SDS011;14732;51.074;3.788;2023-05-10T07:19:43;16.98;;;9.93;;
27225;SDS011;14732;51.074;3.788;2023-05-10T07:22:08;12.00;;;9.13;;
27225;SDS011;14732;51.074;3.788;2023-05-10T07:24:34;16.08;;;9.55;;
27225;SDS011;14732;51.074;3.788;2023-05-10T07:27:00;18.30;;;9.30;;
27225;SDS011;14732;51.074;3.788;2023-05-10T07:29:26;12.82;;;7.90;;
27225;SDS011;14732;51.074;3.788;2023-05-10T07:31:51;17.75;;;7.82;;
27225;SDS011;14732;51.074;3.788;2023-05-10T07:34:17;13.57;;;7.75;;
27225;SDS011;14732;51.074;3.788;2023-05-10T07:36:43;13.32;;;8.45;;
27225;SDS011;14732;51.074;3.788;2023-05-10T07:39:09;20.10;;;10.60;;
27225;SDS011;14732;51.074;3.788;2023-05-10T07:41:35;28.08;;;12.40;;
27225;SDS011;14732;51.074;3.788;2023-05-10T07:44:02;33.70;;;14.75;;
27225;SDS011;14732;51.074;3.788;2023-05-10T07:46:28;32.65;;;15.77;;
27225;SDS011;14732;51.074;3.788;2023-05-10T07:48:54;33.28;;;17.55;;
27225;SDS011;14732;51.074;3.788;2023-05-10T07:51:20;34.95;;;17.35;;
27225;SDS011;14732;51.074;3.788;2023-05-10T07:53:46;32.15;;;16.77;;
27225;SDS011;14732;51.074;3.788;2023-05-10T07:56:22;33.42;;;18.05;;
27225;SDS011;14732;51.074;3.788;2023-05-10T07:58:50;30.33;;;17.30;;
27225;SDS011;14732;51.074;3.788;2023-05-10T08:01:16;36.13;;;17.73;;
27225;SDS011;14732;51.074;3.788;2023-05-10T08:03:42;29.60;;;16.00;;
27225;SDS011;14732;51.074;3.788;2023-05-10T08:06:07;36.25;;;18.38;;
27225;SDS011;14732;51.074;3.788;2023-05-10T08:08:33;38.33;;;17.17;;
27225;SDS011;14732;51.074;3.788;2023-05-10T08:10:59;32.50;;;17.35;;
27225;SDS011;14732;51.074;3.788;2023-05-10T08:13:24;35.55;;;17.73;;
27225;SDS011;14732;51.074;3.788;2023-05-10T08:15:50;36.42;;;18.05;;
27225;SDS011;14732;51.074;3.788;2023-05-10T08:18:18;34.13;;;17.73;;
27225;SDS011;14732;51.074;3.788;2023-05-10T08:20:44;31.45;;;16.77;;
27225;SDS011;14732;51.074;3.788;2023-05-10T08:23:10;35.35;;;16.83;;
27225;SDS011;14732;51.074;3.788;2023-05-10T08:25:37;37.50;;;18.00;;
27225;SDS011;14732;51.074;3.788;2023-05-10T08:28:02;36.78;;;16.70;;
27225;SDS011;14732;51.074;3.788;2023-05-10T08:30:28;33.50;;;16.92;;
27225;SDS011;14732;51.074;3.788;2023-05-10T08:32:54;31.83;;;16.70;;
27225;SDS011;14732;51.074;3.788;2023-05-10T08:35:19;30.77;;;15.95;;
27225;SDS011;14732;51.074;3.788;2023-05-10T08:37:45;34.00;;;17.15;;
27225;SDS011;14732;51.074;3.788;2023-05-10T08:40:11;31.42;;;17.10;;
27225;SDS011;14732;51.074;3.788;2023-05-10T08:42:39;34.35;;;17.58;;
27225;SDS011;14732;51.074;3.788;2023-05-10T08:45:08;30.63;;;16.73;;
27225;SDS011;14732;51.074;3.788;2023-05-10T08:47:36;30.55;;;16.88;;
27225;SDS011;14732;51.074;3.788;2023-05-10T08:50:03;34.28;;;17.80;;
27225;SDS011;14732;51.074;3.788;2023-05-10T08:52:30;36.97;;;17.35;;
27225;SDS011;14732;51.074;3.788;2023-05-10T08:54:57;39.55;;;17.50;;
27225;SDS011;14732;51.074;3.788;2023-05-10T08:57:23;34.88;;;16.55;;
27225;SDS011;14732;51.074;3.788;2023-05-10T08:59:49;34.28;;;17.10;;
27225;SDS011;14732;51.074;3.788;2023-05-10T09:02:15;36.70;;;16.60;;
27225;SDS011;14732;51.074;3.788;2023-05-10T09:04:43;36.40;;;16.38;;
27225;SDS011;14732;51.074;3.788;2023-05-10T09:07:09;34.70;;;16.52;;
27225;SDS011;14732;51.074;3.788;2023-05-10T09:09:36;34.38;;;15.38;;
27225;SDS011;14732;51.074;3.788;2023-05-10T09:12:02;32.97;;;14.60;;
27225;SDS011;14732;51.074;3.788;2023-05-10T09:14:28;30.40;;;14.13;;
27225;SDS011;14732;51.074;3.788;2023-05-10T09:16:55;30.98;;;14.38;;
27225;SDS011;14732;51.074;3.788;2023-05-10T09:19:21;33.42;;;14.27;;
27225;SDS011;14732;51.074;3.788;2023-05-10T09:21:47;28.92;;;13.93;;
27225;SDS011;14732;51.074;3.788;2023-05-10T09:24:14;25.60;;;13.57;;
27225;SDS011;14732;51.074;3.788;2023-05-10T09:26:45;31.00;;;14.57;;
27225;SDS011;14732;51.074;3.788;2023-05-10T09:29:15;25.85;;;13.50;;
27225;SDS011;14732;51.074;3.788;2023-05-10T09:31:44;30.63;;;13.10;;
27225;SDS011;14732;51.074;3.788;2023-05-10T09:34:20;25.55;;;13.80;;
27225;SDS011;14732;51.074;3.788;2023-05-10T09:39:33;25.00;;;13.13;;
27225;SDS011;14732;51.074;3.788;2023-05-10T09:42:01;26.55;;;13.70;;
27225;SDS011;14732;51.074;3.788;2023-05-10T09:44:28;28.85;;;13.63;;
27225;SDS011;14732;51.074;3.788;2023-05-10T09:46:55;26.23;;;13.63;;
27225;SDS011;14732;51.074;3.788;2023-05-10T09:49:21;26.55;;;14.38;;
27225;SDS011;14732;51.074;3.788;2023-05-10T09:51:57;26.20;;;13.63;;
27225;SDS011;14732;51.074;3.788;2023-05-10T09:54:34;24.77;;;13.43;;
27225;SDS011;14732;51.074;3.788;2023-05-10T09:57:00;24.58;;;13.50;;
27225;SDS011;14732;51.074;3.788;2023-05-10T09:59:26;20.27;;;12.52;;
27225;SDS011;14732;51.074;3.788;2023-05-10T10:01:53;24.52;;;13.32;;
27225;SDS011;14732;51.074;3.788;2023-05-10T10:04:21;21.58;;;12.98;;
27225;SDS011;14732;51.074;3.788;2023-05-10T10:06:57;25.25;;;13.48;;
27225;SDS011;14732;51.074;3.788;2023-05-10T10:09:24;24.02;;;12.73;;
27225;SDS011;14732;51.074;3.788;2023-05-10T10:11:50;20.08;;;12.40;;
27225;SDS011;14732;51.074;3.788;2023-05-10T10:14:18;22.33;;;12.23;;
27225;SDS011;14732;51.074;3.788;2023-05-10T10:16:44;26.42;;;12.15;;
27225;SDS011;14732;51.074;3.788;2023-05-10T10:19:10;22.92;;;11.85;;
27225;SDS011;14732;51.074;3.788;2023-05-10T10:21:35;19.90;;;11.73;;
27225;SDS011;14732;51.074;3.788;2023-05-10T10:24:01;20.73;;;11.57;;
27225;SDS011;14732;51.074;3.788;2023-05-10T10:26:30;21.02;;;11.55;;
27225;SDS011;14732;51.074;3.788;2023-05-10T10:31:51;17.00;;;9.65;;
27225;SDS011;14732;51.074;3.788;2023-05-10T10:34:38;18.30;;;10.23;;
27225;SDS011;14732;51.074;3.788;2023-05-10T10:37:05;17.17;;;11.00;;
27225;SDS011;14732;51.074;3.788;2023-05-10T10:39:31;19.65;;;10.20;;
27225;SDS011;14732;51.074;3.788;2023-05-10T10:41:57;18.05;;;10.50;;
27225;SDS011;14732;51.074;3.788;2023-05-10T10:52:21;18.52;;;10.23;;
27225;SDS011;14732;51.074;3.788;2023-05-10T10:57:25;15.90;;;10.07;;
27225;SDS011;14732;51.074;3.788;2023-05-10T10:59:51;18.25;;;10.48;;
27225;SDS011;14732;51.074;3.788;2023-05-10T11:07:58;17.85;;;11.05;;
27225;SDS011;14732;51.074;3.788;2023-05-10T11:10:25;19.55;;;10.45;;
27225;SDS011;14732;51.074;3.788;2023-05-10T11:13:12;18.08;;;11.73;;
27225;SDS011;14732;51.074;3.788;2023-05-10T11:15:38;18.80;;;11.32;;
27225;SDS011;14732;51.074;3.788;2023-05-10T11:20:43;27.48;;;13.60;;
27225;SDS011;14732;51.074;3.788;2023-05-10T11:23:14;23.83;;;12.55;;
27225;SDS011;14732;51.074;3.788;2023-05-10T11:25:44;24.50;;;13.23;;
27225;SDS011;14732;51.074;3.788;2023-05-10T11:28:11;22.33;;;13.07;;
27225;SDS011;14732;51.074;3.788;2023-05-10T11:30:40;20.08;;;12.32;;
27225;SDS011;14732;51.074;3.788;2023-05-10T11:33:08;23.38;;;12.45;;
27225;SDS011;14732;51.074;3.788;2023-05-10T11:35:38;21.77;;;12.80;;
27225;SDS011;14732;51.074;3.788;2023-05-10T11:38:08;21.20;;;13.63;;
27225;SDS011;14732;51.074;3.788;2023-05-10T11:40:35;24.95;;;14.18;;
27225;SDS011;14732;51.074;3.788;2023-05-10T11:43:02;27.83;;;14.90;;
27225;SDS011;14732;51.074;3.788;2023-05-10T11:45:28;25.10;;;15.63;;
27225;SDS011;14732;51.074;3.788;2023-05-10T11:47:58;27.13;;;15.95;;
27225;SDS011;14732;51.074;3.788;2023-05-10T11:50:24;28.27;;;16.45;;
27225;SDS011;14732;51.074;3.788;2023-05-10T11:52:57;25.80;;;16.13;;
27225;SDS011;14732;51.074;3.788;2023-05-10T11:55:23;28.85;;;16.67;;
27225;SDS011;14732;51.074;3.788;2023-05-10T11:57:53;25.58;;;16.25;;
27225;SDS011;14732;51.074;3.788;2023-05-10T12:00:19;29.88;;;16.83;;
27225;SDS011;14732;51.074;3.788;2023-05-10T12:02:45;28.55;;;17.33;;
27225;SDS011;14732;51.074;3.788;2023-05-10T12:05:11;27.20;;;17.20;;
27225;SDS011;14732;51.074;3.788;2023-05-10T12:07:37;25.17;;;16.42;;
27225;SDS011;14732;51.074;3.788;2023-05-10T12:10:10;30.92;;;16.70;;
27225;SDS011;14732;51.074;3.788;2023-05-10T12:12:43;28.27;;;16.90;;
27225;SDS011;14732;51.074;3.788;2023-05-10T12:15:18;30.45;;;16.67;;
27225;SDS011;14732;51.074;3.788;2023-05-10T12:17:49;23.60;;;16.50;;
27225;SDS011;14732;51.074;3.788;2023-05-10T12:20:19;24.45;;;16.30;;
27225;SDS011;14732;51.074;3.788;2023-05-10T12:25:14;31.52;;;16.48;;
27225;SDS011;14732;51.074;3.788;2023-05-10T12:27:39;23.35;;;14.98;;
27225;SDS011;14732;51.074;3.788;2023-05-10T12:30:06;23.27;;;14.88;;
27225;SDS011;14732;51.074;3.788;2023-05-10T12:32:41;23.73;;;14.65;;
27225;SDS011;14732;51.074;3.788;2023-05-10T12:35:08;22.58;;;14.52;;
27225;SDS011;14732;51.074;3.788;2023-05-10T12:37:35;22.50;;;14.32;;
27225;SDS011;14732;51.074;3.788;2023-05-10T12:40:05;23.80;;;14.35;;
27225;SDS011;14732;51.074;3.788;2023-05-10T12:42:34;20.55;;;14.13;;
27225;SDS011;14732;51.074;3.788;2023-05-10T12:45:01;19.45;;;13.25;;
27225;SDS011;14732;51.074;3.788;2023-05-10T12:47:27;22.92;;;13.15;;
27225;SDS011;14732;51.074;3.788;2023-05-10T12:49:53;20.88;;;12.82;;
27225;SDS011;14732;51.074;3.788;2023-05-10T12:52:18;21.23;;;12.77;;
27225;SDS011;14732;51.074;3.788;2023-05-10T12:54:44;21.35;;;12.93;;
27225;SDS011;14732;51.074;3.788;2023-05-10T12:57:10;23.00;;;13.50;;
27225;SDS011;14732;51.074;3.788;2023-05-10T12:59:36;20.38;;;12.70;;
27225;SDS011;14732;51.074;3.788;2023-05-10T13:02:02;23.27;;;12.18;;
27225;SDS011;14732;51.074;3.788;2023-05-10T13:04:27;24.83;;;12.07;;
27225;SDS011;14732;51.074;3.788;2023-05-10T13:06:53;19.08;;;11.73;;
27225;SDS011;14732;51.074;3.788;2023-05-10T13:09:21;20.38;;;12.18;;
27225;SDS011;14732;51.074;3.788;2023-05-10T13:11:46;20.17;;;12.65;;
27225;SDS011;14732;51.074;3.788;2023-05-10T13:14:13;20.48;;;13.00;;
27225;SDS011;14732;51.074;3.788;2023-05-10T13:16:39;21.70;;;13.25;;
27225;SDS011;14732;51.074;3.788;2023-05-10T13:19:05;23.92;;;13.23;;
27225;SDS011;14732;51.074;3.788;2023-05-10T13:21:30;21.23;;;13.27;;
27225;SDS011;14732;51.074;3.788;2023-05-10T13:23:56;22.55;;;13.73;;
27225;SDS011;14732;51.074;3.788;2023-05-10T13:26:21;28.23;;;15.05;;
27225;SDS011;14732;51.074;3.788;2023-05-10T13:28:47;24.38;;;14.18;;
27225;SDS011;14732;51.074;3.788;2023-05-10T13:31:13;23.33;;;15.18;;
27225;SDS011;14732;51.074;3.788;2023-05-10T13:33:39;24.60;;;14.85;;
27225;SDS011;14732;51.074;3.788;2023-05-10T13:36:05;22.65;;;15.20;;
27225;SDS011;14732;51.074;3.788;2023-05-10T13:38:31;22.05;;;13.82;;
27225;SDS011;14732;51.074;3.788;2023-05-10T13:40:57;22.75;;;14.35;;
27225;SDS011;14732;51.074;3.788;2023-05-10T13:43:23;20.90;;;13.10;;
27225;SDS011;14732;51.074;3.788;2023-05-10T13:45:49;23.70;;;13.60;;
27225;SDS011;14732;51.074;3.788;2023-05-10T13:48:15;31.25;;;14.57;;
27225;SDS011;14732;51.074;3.788;2023-05-10T13:50:41;33.17;;;16.23;;
27225;SDS011;14732;51.074;3.788;2023-05-10T13:53:06;26.48;;;15.25;;
27225;SDS011;14732;51.074;3.788;2023-05-10T13:55:32;28.27;;;15.27;;
27225;SDS011;14732;51.074;3.788;2023-05-10T13:57:58;24.95;;;15.10;;
27225;SDS011;14732;51.074;3.788;2023-05-10T14:00:24;26.70;;;15.43;;
27225;SDS011;14732;51.074;3.788;2023-05-10T14:02:49;24.90;;;14.82;;
27225;SDS011;14732;51.074;3.788;2023-05-10T14:05:15;23.42;;;13.98;;
27225;SDS011;14732;51.074;3.788;2023-05-10T14:07:41;19.90;;;13.38;;
27225;SDS011;14732;51.074;3.788;2023-05-10T14:10:06;22.30;;;13.63;;
27225;SDS011;14732;51.074;3.788;2023-05-10T14:12:32;24.92;;;14.10;;
27225;SDS011;14732;51.074;3.788;2023-05-10T14:14:58;25.33;;;13.68;;
27225;SDS011;14732;51.074;3.788;2023-05-10T14:17:23;22.42;;;14.25;;
27225;SDS011;14732;51.074;3.788;2023-05-10T14:19:49;22.42;;;14.32;;
27225;SDS011;14732;51.074;3.788;2023-05-10T14:22:15;23.13;;;13.80;;
27225;SDS011;14732;51.074;3.788;2023-05-10T14:24:40;29.02;;;14.32;;
27225;SDS011;14732;51.074;3.788;2023-05-10T14:27:06;24.13;;;13.35;;
27225;SDS011;14732;51.074;3.788;2023-05-10T14:29:32;25.13;;;14.68;;
27225;SDS011;14732;51.074;3.788;2023-05-10T14:31:57;28.75;;;15.35;;
27225;SDS011;14732;51.074;3.788;2023-05-10T14:34:23;28.08;;;14.68;;
27225;SDS011;14732;51.074;3.788;2023-05-10T14:36:49;23.50;;;14.68;;
27225;SDS011;14732;51.074;3.788;2023-05-10T14:39:15;21.83;;;13.82;;
27225;SDS011;14732;51.074;3.788;2023-05-10T14:41:41;25.73;;;15.10;;
27225;SDS011;14732;51.074;3.788;2023-05-10T14:44:08;23.75;;;14.38;;
27225;SDS011;14732;51.074;3.788;2023-05-10T14:46:34;26.20;;;14.90;;
27225;SDS011;14732;51.074;3.788;2023-05-10T14:49:00;27.45;;;14.95;;
27225;SDS011;14732;51.074;3.788;2023-05-10T14:51:26;27.77;;;15.15;;
27225;SDS011;14732;51.074;3.788;2023-05-10T14:53:51;28.88;;;15.90;;
27225;SDS011;14732;51.074;3.788;2023-05-10T14:56:17;27.80;;;15.63;;
27225;SDS011;14732;51.074;3.788;2023-05-10T14:58:43;28.23;;;15.10;;
27225;SDS011;14732;51.074;3.788;2023-05-10T15:01:09;33.60;;;16.80;;
27225;SDS011;14732;51.074;3.788;2023-05-10T15:03:34;27.45;;;15.88;;
27225;SDS011;14732;51.074;3.788;2023-05-10T15:06:00;27.08;;;16.90;;